sensor_id;sensor_type;location;lat;lon;timestamp;temperature;humidity
20732;DHT22;10527;52.124;5.196;2023-05-29T00:00:58;13.10;99.90
20732;DHT22;10527;52.124;5.196;2023-05-29T00:03:26;13.00;99.90
20732;DHT22;10527;52.124;5.196;2023-05-29T00:05:53;13.10;99.90
20732;DHT22;10527;52.124;5.196;2023-05-29T00:08:20;13.20;99.90
20732;DHT22;10527;52.124;5.196;2023-05-29T00:10:47;13.30;99.90
20732;DHT22;10527;52.124;5.196;2023-05-29T00:13:14;13.20;99.90
20732;DHT22;10527;52.124;5.196;2023-05-29T00:15:41;13.10;99.90
20732;DHT22;10527;52.124;5.196;2023-05-29T00:18:08;13.00;99.90
20732;DHT22;10527;52.124;5.196;2023-05-29T00:20:38;13.00;99.90
20732;DHT22;10527;52.124;5.196;2023-05-29T00:23:05;12.90;99.90
20732;DHT22;10527;52.124;5.196;2023-05-29T00:25:33;13.10;99.90
20732;DHT22;10527;52.124;5.196;2023-05-29T00:28:00;13.10;99.90
20732;DHT22;10527;52.124;5.196;2023-05-29T00:30:29;13.10;99.90
20732;DHT22;10527;52.124;5.196;2023-05-29T00:32:56;13.00;99.90
20732;DHT22;10527;52.124;5.196;2023-05-29T00:35:23;13.00;99.90
20732;DHT22;10527;52.124;5.196;2023-05-29T00:37:50;13.10;99.90
20732;DHT22;10527;52.124;5.196;2023-05-29T00:40:20;13.00;99.90
20732;DHT22;10527;52.124;5.196;2023-05-29T00:42:47;13.00;99.90
20732;DHT22;10527;52.124;5.196;2023-05-29T00:45:14;13.00;99.90
20732;DHT22;10527;52.124;5.196;2023-05-29T00:47:42;12.90;99.90
20732;DHT22;10527;52.124;5.196;2023-05-29T00:50:10;13.00;99.90
20732;DHT22;10527;52.124;5.196;2023-05-29T00:52:41;12.90;99.90
20732;DHT22;10527;52.124;5.196;2023-05-29T00:55:11;13.00;99.90
20732;DHT22;10527;52.124;5.196;2023-05-29T00:57:40;12.90;99.90
20732;DHT22;10527;52.124;5.196;2023-05-29T01:00:07;12.90;99.90
20732;DHT22;10527;52.124;5.196;2023-05-29T01:02:37;12.80;99.90
20732;DHT22;10527;52.124;5.196;2023-05-29T01:05:06;12.80;99.90
20732;DHT22;10527;52.124;5.196;2023-05-29T01:07:36;12.90;99.90
20732;DHT22;10527;52.124;5.196;2023-05-29T01:10:07;12.90;99.90
20732;DHT22;10527;52.124;5.196;2023-05-29T01:24:49;12.60;99.90
20732;DHT22;10527;52.124;5.196;2023-05-29T01:27:21;12.60;99.90
20732;DHT22;10527;52.124;5.196;2023-05-29T01:29:52;12.60;99.90
20732;DHT22;10527;52.124;5.196;2023-05-29T01:32:21;12.60;99.90
20732;DHT22;10527;52.124;5.196;2023-05-29T01:34:49;12.60;99.90
20732;DHT22;10527;52.124;5.196;2023-05-29T01:37:16;12.70;99.90
20732;DHT22;10527;52.124;5.196;2023-05-29T01:39:46;12.60;99.90
20732;DHT22;10527;52.124;5.196;2023-05-29T01:42:13;12.50;99.90
20732;DHT22;10527;52.124;5.196;2023-05-29T01:44:40;12.60;99.90
20732;DHT22;10527;52.124;5.196;2023-05-29T01:47:09;12.50;99.90
20732;DHT22;10527;52.124;5.196;2023-05-29T01:49:37;12.50;99.90
20732;DHT22;10527;52.124;5.196;2023-05-29T01:52:05;12.50;99.90
20732;DHT22;10527;52.124;5.196;2023-05-29T01:54:32;12.40;99.90
20732;DHT22;10527;52.124;5.196;2023-05-29T01:57:00;12.40;99.90
20732;DHT22;10527;52.124;5.196;2023-05-29T01:59:29;12.50;99.90
20732;DHT22;10527;52.124;5.196;2023-05-29T02:01:56;12.30;99.90
20732;DHT22;10527;52.124;5.196;2023-05-29T02:04:23;12.30;99.90
20732;DHT22;10527;52.124;5.196;2023-05-29T02:06:51;12.20;99.90
20732;DHT22;10527;52.124;5.196;2023-05-29T02:09:20;12.20;99.90
20732;DHT22;10527;52.124;5.196;2023-05-29T02:11:49;12.10;99.90
20732;DHT22;10527;52.124;5.196;2023-05-29T02:14:16;12.10;99.90
20732;DHT22;10527;52.124;5.196;2023-05-29T02:16:43;12.10;99.90
20732;DHT22;10527;52.124;5.196;2023-05-29T02:19:10;12.00;99.90
20732;DHT22;10527;52.124;5.196;2023-05-29T02:21:39;12.20;99.90
20732;DHT22;10527;52.124;5.196;2023-05-29T02:24:09;12.20;99.90
20732;DHT22;10527;52.124;5.196;2023-05-29T02:26:36;12.10;99.90
20732;DHT22;10527;52.124;5.196;2023-05-29T02:29:05;12.10;99.90
20732;DHT22;10527;52.124;5.196;2023-05-29T02:31:32;12.10;99.90
20732;DHT22;10527;52.124;5.196;2023-05-29T02:33:59;11.90;99.90
20732;DHT22;10527;52.124;5.196;2023-05-29T02:36:26;11.90;99.90
20732;DHT22;10527;52.124;5.196;2023-05-29T02:38:54;11.80;99.90
20732;DHT22;10527;52.124;5.196;2023-05-29T02:41:21;11.70;99.90
20732;DHT22;10527;52.124;5.196;2023-05-29T02:43:48;11.80;99.90
20732;DHT22;10527;52.124;5.196;2023-05-29T02:46:14;11.90;99.90
20732;DHT22;10527;52.124;5.196;2023-05-29T02:48:41;11.80;99.90
20732;DHT22;10527;52.124;5.196;2023-05-29T02:51:08;11.90;99.90
20732;DHT22;10527;52.124;5.196;2023-05-29T02:53:35;11.90;99.90
20732;DHT22;10527;52.124;5.196;2023-05-29T02:56:01;11.70;99.90
20732;DHT22;10527;52.124;5.196;2023-05-29T02:58:28;11.60;99.90
20732;DHT22;10527;52.124;5.196;2023-05-29T03:00:58;11.70;99.90
20732;DHT22;10527;52.124;5.196;2023-05-29T03:03:25;11.70;99.90
20732;DHT22;10527;52.124;5.196;2023-05-29T03:05:52;11.60;99.90
20732;DHT22;10527;52.124;5.196;2023-05-29T03:08:18;11.70;99.90
20732;DHT22;10527;52.124;5.196;2023-05-29T03:10:45;11.70;99.90
20732;DHT22;10527;52.124;5.196;2023-05-29T03:13:16;11.60;99.90
20732;DHT22;10527;52.124;5.196;2023-05-29T03:15:45;11.60;99.90
20732;DHT22;10527;52.124;5.196;2023-05-29T03:18:12;11.70;99.90
20732;DHT22;10527;52.124;5.196;2023-05-29T03:20:39;11.80;99.90
20732;DHT22;10527;52.124;5.196;2023-05-29T03:23:05;11.70;99.90
20732;DHT22;10527;52.124;5.196;2023-05-29T03:25:32;11.70;99.90
20732;DHT22;10527;52.124;5.196;2023-05-29T03:27:59;11.80;99.90
20732;DHT22;10527;52.124;5.196;2023-05-29T03:30:26;11.90;99.90
20732;DHT22;10527;52.124;5.196;2023-05-29T03:32:53;11.70;99.90
20732;DHT22;10527;52.124;5.196;2023-05-29T03:35:20;11.70;99.90
20732;DHT22;10527;52.124;5.196;2023-05-29T03:37:49;11.70;99.90
20732;DHT22;10527;52.124;5.196;2023-05-29T03:40:16;11.70;99.90
20732;DHT22;10527;52.124;5.196;2023-05-29T03:42:43;11.70;99.90
20732;DHT22;10527;52.124;5.196;2023-05-29T03:45:10;11.60;99.90
20732;DHT22;10527;52.124;5.196;2023-05-29T03:47:37;11.70;99.90
20732;DHT22;10527;52.124;5.196;2023-05-29T03:50:06;11.60;99.90
20732;DHT22;10527;52.124;5.196;2023-05-29T03:52:36;11.50;99.90
20732;DHT22;10527;52.124;5.196;2023-05-29T03:55:08;11.50;99.90
20732;DHT22;10527;52.124;5.196;2023-05-29T03:57:41;11.50;99.90
20732;DHT22;10527;52.124;5.196;2023-05-29T04:00:09;11.50;99.90
20732;DHT22;10527;52.124;5.196;2023-05-29T04:02:38;11.40;99.90
20732;DHT22;10527;52.124;5.196;2023-05-29T04:05:06;11.50;99.90
20732;DHT22;10527;52.124;5.196;2023-05-29T04:07:38;11.40;99.90
20732;DHT22;10527;52.124;5.196;2023-05-29T04:10:07;11.50;99.90
20732;DHT22;10527;52.124;5.196;2023-05-29T04:12:35;11.40;99.90
20732;DHT22;10527;52.124;5.196;2023-05-29T04:15:02;11.30;99.90
20732;DHT22;10527;52.124;5.196;2023-05-29T04:17:29;11.30;99.90
20732;DHT22;10527;52.124;5.196;2023-05-29T04:19:56;11.30;99.90
20732;DHT22;10527;52.124;5.196;2023-05-29T04:22:23;11.40;99.90
20732;DHT22;10527;52.124;5.196;2023-05-29T04:24:50;11.40;99.90
20732;DHT22;10527;52.124;5.196;2023-05-29T04:27:17;11.30;99.90
20732;DHT22;10527;52.124;5.196;2023-05-29T04:29:43;11.30;99.90
20732;DHT22;10527;52.124;5.196;2023-05-29T04:32:10;11.20;99.90
20732;DHT22;10527;52.124;5.196;2023-05-29T04:34:38;11.20;99.90
20732;DHT22;10527;52.124;5.196;2023-05-29T04:37:10;11.30;99.90
20732;DHT22;10527;52.124;5.196;2023-05-29T04:39:37;11.20;99.90
20732;DHT22;10527;52.124;5.196;2023-05-29T04:42:04;11.20;99.90
20732;DHT22;10527;52.124;5.196;2023-05-29T04:44:32;11.20;99.90
20732;DHT22;10527;52.124;5.196;2023-05-29T04:46:59;11.30;99.90
20732;DHT22;10527;52.124;5.196;2023-05-29T04:49:30;11.30;99.90
20732;DHT22;10527;52.124;5.196;2023-05-29T04:51:57;11.30;99.90
20732;DHT22;10527;52.124;5.196;2023-05-29T04:54:27;11.40;99.90
20732;DHT22;10527;52.124;5.196;2023-05-29T04:56:54;11.40;99.90
20732;DHT22;10527;52.124;5.196;2023-05-29T04:59:21;11.50;99.90
20732;DHT22;10527;52.124;5.196;2023-05-29T05:01:48;11.50;99.90
20732;DHT22;10527;52.124;5.196;2023-05-29T05:04:15;11.50;99.90
20732;DHT22;10527;52.124;5.196;2023-05-29T05:06:42;11.50;99.90
20732;DHT22;10527;52.124;5.196;2023-05-29T05:09:10;11.50;99.90
20732;DHT22;10527;52.124;5.196;2023-05-29T05:11:37;11.60;99.90
20732;DHT22;10527;52.124;5.196;2023-05-29T05:14:07;11.50;99.90
20732;DHT22;10527;52.124;5.196;2023-05-29T05:16:34;11.50;99.90
20732;DHT22;10527;52.124;5.196;2023-05-29T05:19:02;11.50;99.90
20732;DHT22;10527;52.124;5.196;2023-05-29T05:21:29;11.60;99.90
20732;DHT22;10527;52.124;5.196;2023-05-29T05:23:58;11.50;99.90
20732;DHT22;10527;52.124;5.196;2023-05-29T05:26:29;11.50;99.90
20732;DHT22;10527;52.124;5.196;2023-05-29T05:28:56;11.70;99.90
20732;DHT22;10527;52.124;5.196;2023-05-29T05:31:23;11.70;99.90
20732;DHT22;10527;52.124;5.196;2023-05-29T05:33:50;11.70;99.90
20732;DHT22;10527;52.124;5.196;2023-05-29T05:36:18;11.70;99.90
20732;DHT22;10527;52.124;5.196;2023-05-29T05:38:45;11.70;99.90
20732;DHT22;10527;52.124;5.196;2023-05-29T05:41:12;11.70;99.90
20732;DHT22;10527;52.124;5.196;2023-05-29T05:43:39;11.70;99.90
20732;DHT22;10527;52.124;5.196;2023-05-29T05:46:05;11.80;99.90
20732;DHT22;10527;52.124;5.196;2023-05-29T05:48:32;11.80;99.90
20732;DHT22;10527;52.124;5.196;2023-05-29T05:51:00;11.80;99.90
20732;DHT22;10527;52.124;5.196;2023-05-29T05:53:27;11.90;99.90
20732;DHT22;10527;52.124;5.196;2023-05-29T05:55:54;11.80;99.90
20732;DHT22;10527;52.124;5.196;2023-05-29T05:58:21;11.90;99.90
20732;DHT22;10527;52.124;5.196;2023-05-29T06:00:48;11.90;99.90
20732;DHT22;10527;52.124;5.196;2023-05-29T06:03:14;12.00;99.90
20732;DHT22;10527;52.124;5.196;2023-05-29T06:05:42;12.00;99.90
20732;DHT22;10527;52.124;5.196;2023-05-29T06:08:16;12.00;99.90
20732;DHT22;10527;52.124;5.196;2023-05-29T06:10:43;12.10;99.90
20732;DHT22;10527;52.124;5.196;2023-05-29T06:13:10;12.20;99.90
20732;DHT22;10527;52.124;5.196;2023-05-29T06:15:38;12.20;99.90
20732;DHT22;10527;52.124;5.196;2023-05-29T06:18:05;12.10;99.90
20732;DHT22;10527;52.124;5.196;2023-05-29T06:20:32;12.20;99.90
20732;DHT22;10527;52.124;5.196;2023-05-29T06:22:58;12.10;99.90
20732;DHT22;10527;52.124;5.196;2023-05-29T06:25:25;12.20;99.90
20732;DHT22;10527;52.124;5.196;2023-05-29T06:28:00;12.20;99.90
20732;DHT22;10527;52.124;5.196;2023-05-29T06:30:28;12.30;99.90
20732;DHT22;10527;52.124;5.196;2023-05-29T06:32:55;12.30;99.90
20732;DHT22;10527;52.124;5.196;2023-05-29T06:35:22;12.30;99.90
20732;DHT22;10527;52.124;5.196;2023-05-29T06:37:49;12.30;99.90
20732;DHT22;10527;52.124;5.196;2023-05-29T06:40:16;12.40;99.90
20732;DHT22;10527;52.124;5.196;2023-05-29T06:42:42;12.40;99.90
20732;DHT22;10527;52.124;5.196;2023-05-29T06:45:11;12.60;99.90
20732;DHT22;10527;52.124;5.196;2023-05-29T06:47:44;12.60;99.90
20732;DHT22;10527;52.124;5.196;2023-05-29T06:50:11;12.60;99.90
20732;DHT22;10527;52.124;5.196;2023-05-29T06:52:38;12.70;99.90
20732;DHT22;10527;52.124;5.196;2023-05-29T06:55:05;12.60;99.90
20732;DHT22;10527;52.124;5.196;2023-05-29T06:57:32;12.80;99.90
20732;DHT22;10527;52.124;5.196;2023-05-29T06:59:59;12.80;99.90
20732;DHT22;10527;52.124;5.196;2023-05-29T07:02:26;12.90;99.90
20732;DHT22;10527;52.124;5.196;2023-05-29T07:04:53;13.00;99.90
20732;DHT22;10527;52.124;5.196;2023-05-29T07:07:20;13.00;99.90
20732;DHT22;10527;52.124;5.196;2023-05-29T07:09:46;13.10;99.90
20732;DHT22;10527;52.124;5.196;2023-05-29T07:12:13;13.00;99.90
20732;DHT22;10527;52.124;5.196;2023-05-29T07:14:40;12.90;99.90
20732;DHT22;10527;52.124;5.196;2023-05-29T07:17:07;13.10;99.90
20732;DHT22;10527;52.124;5.196;2023-05-29T07:19:34;13.20;99.90
20732;DHT22;10527;52.124;5.196;2023-05-29T07:22:01;13.20;99.90
20732;DHT22;10527;52.124;5.196;2023-05-29T07:24:28;13.30;99.90
20732;DHT22;10527;52.124;5.196;2023-05-29T07:26:54;13.40;99.90
20732;DHT22;10527;52.124;5.196;2023-05-29T07:29:22;13.40;99.90
20732;DHT22;10527;52.124;5.196;2023-05-29T07:31:50;13.30;99.90
20732;DHT22;10527;52.124;5.196;2023-05-29T07:34:18;13.20;99.90
20732;DHT22;10527;52.124;5.196;2023-05-29T07:37:05;13.40;99.90
20732;DHT22;10527;52.124;5.196;2023-05-29T07:39:34;13.30;99.90
20732;DHT22;10527;52.124;5.196;2023-05-29T07:42:03;13.50;99.90
20732;DHT22;10527;52.124;5.196;2023-05-29T07:44:30;13.80;99.90
20732;DHT22;10527;52.124;5.196;2023-05-29T07:46:57;14.10;99.90
20732;DHT22;10527;52.124;5.196;2023-05-29T07:49:24;14.20;99.90
20732;DHT22;10527;52.124;5.196;2023-05-29T07:51:51;14.50;99.90
20732;DHT22;10527;52.124;5.196;2023-05-29T07:54:18;14.80;99.90
20732;DHT22;10527;52.124;5.196;2023-05-29T07:56:47;14.80;99.90
20732;DHT22;10527;52.124;5.196;2023-05-29T07:59:14;15.10;99.90
20732;DHT22;10527;52.124;5.196;2023-05-29T08:01:41;15.10;99.90
20732;DHT22;10527;52.124;5.196;2023-05-29T08:04:10;15.20;99.90
20732;DHT22;10527;52.124;5.196;2023-05-29T08:06:38;15.30;99.90
20732;DHT22;10527;52.124;5.196;2023-05-29T08:09:09;15.40;99.90
20732;DHT22;10527;52.124;5.196;2023-05-29T08:11:37;15.50;99.90
20732;DHT22;10527;52.124;5.196;2023-05-29T08:14:03;15.80;99.90
20732;DHT22;10527;52.124;5.196;2023-05-29T08:16:30;15.80;99.90
20732;DHT22;10527;52.124;5.196;2023-05-29T08:18:59;15.90;99.90
20732;DHT22;10527;52.124;5.196;2023-05-29T08:21:30;15.70;99.90
20732;DHT22;10527;52.124;5.196;2023-05-29T08:23:58;15.60;99.90
20732;DHT22;10527;52.124;5.196;2023-05-29T08:26:26;15.60;99.90
20732;DHT22;10527;52.124;5.196;2023-05-29T08:28:53;15.80;99.90
20732;DHT22;10527;52.124;5.196;2023-05-29T08:31:22;16.10;99.90
20732;DHT22;10527;52.124;5.196;2023-05-29T08:33:53;16.20;99.90
20732;DHT22;10527;52.124;5.196;2023-05-29T08:36:20;16.60;99.90
20732;DHT22;10527;52.124;5.196;2023-05-29T08:38:48;16.60;99.90
20732;DHT22;10527;52.124;5.196;2023-05-29T08:41:34;16.70;99.90
20732;DHT22;10527;52.124;5.196;2023-05-29T08:44:13;16.70;99.90
20732;DHT22;10527;52.124;5.196;2023-05-29T08:46:43;16.70;99.90
20732;DHT22;10527;52.124;5.196;2023-05-29T08:49:13;16.60;99.90
20732;DHT22;10527;52.124;5.196;2023-05-29T08:51:45;16.60;99.90
20732;DHT22;10527;52.124;5.196;2023-05-29T08:54:14;16.70;99.90
20732;DHT22;10527;52.124;5.196;2023-05-29T08:56:42;16.80;99.90
20732;DHT22;10527;52.124;5.196;2023-05-29T08:59:11;16.90;99.90
20732;DHT22;10527;52.124;5.196;2023-05-29T09:01:38;17.00;99.90
20732;DHT22;10527;52.124;5.196;2023-05-29T09:04:06;17.00;99.90
20732;DHT22;10527;52.124;5.196;2023-05-29T09:06:35;17.10;99.90
20732;DHT22;10527;52.124;5.196;2023-05-29T09:09:02;17.10;99.90
20732;DHT22;10527;52.124;5.196;2023-05-29T09:11:31;17.30;99.90
20732;DHT22;10527;52.124;5.196;2023-05-29T09:13:59;17.50;99.90
20732;DHT22;10527;52.124;5.196;2023-05-29T09:16:26;17.40;99.90
20732;DHT22;10527;52.124;5.196;2023-05-29T09:19:15;17.40;99.90
20732;DHT22;10527;52.124;5.196;2023-05-29T09:21:42;17.80;99.90
20732;DHT22;10527;52.124;5.196;2023-05-29T09:24:14;17.80;99.90
20732;DHT22;10527;52.124;5.196;2023-05-29T09:26:51;17.70;99.90
20732;DHT22;10527;52.124;5.196;2023-05-29T09:29:18;17.80;99.90
20732;DHT22;10527;52.124;5.196;2023-05-29T09:31:47;17.60;99.90
20732;DHT22;10527;52.124;5.196;2023-05-29T09:34:14;17.70;99.90
20732;DHT22;10527;52.124;5.196;2023-05-29T09:36:41;17.70;99.90
20732;DHT22;10527;52.124;5.196;2023-05-29T09:39:08;17.90;99.90
20732;DHT22;10527;52.124;5.196;2023-05-29T09:41:44;17.90;99.90
20732;DHT22;10527;52.124;5.196;2023-05-29T09:44:15;17.70;99.90
20732;DHT22;10527;52.124;5.196;2023-05-29T09:46:42;18.00;99.90
20732;DHT22;10527;52.124;5.196;2023-05-29T09:49:13;17.80;99.90
20732;DHT22;10527;52.124;5.196;2023-05-29T09:51:40;18.20;99.90
20732;DHT22;10527;52.124;5.196;2023-05-29T09:54:16;17.90;99.90
20732;DHT22;10527;52.124;5.196;2023-05-29T09:56:45;18.10;99.90
20732;DHT22;10527;52.124;5.196;2023-05-29T09:59:14;18.40;99.90
20732;DHT22;10527;52.124;5.196;2023-05-29T10:01:43;18.20;99.90
20732;DHT22;10527;52.124;5.196;2023-05-29T10:04:11;17.90;99.90
20732;DHT22;10527;52.124;5.196;2023-05-29T10:06:41;18.00;99.90
20732;DHT22;10527;52.124;5.196;2023-05-29T10:09:14;18.10;99.90
20732;DHT22;10527;52.124;5.196;2023-05-29T10:11:47;17.90;99.90
20732;DHT22;10527;52.124;5.196;2023-05-29T10:14:18;18.20;99.90
20732;DHT22;10527;52.124;5.196;2023-05-29T10:16:49;18.20;99.90
20732;DHT22;10527;52.124;5.196;2023-05-29T10:19:24;18.30;99.90
20732;DHT22;10527;52.124;5.196;2023-05-29T10:21:53;18.60;99.90
20732;DHT22;10527;52.124;5.196;2023-05-29T10:24:22;18.50;99.90
20732;DHT22;10527;52.124;5.196;2023-05-29T10:26:52;18.50;99.90
20732;DHT22;10527;52.124;5.196;2023-05-29T10:32:40;18.70;99.90
20732;DHT22;10527;52.124;5.196;2023-05-29T10:38:17;18.40;99.90
20732;DHT22;10527;52.124;5.196;2023-05-29T10:40:45;18.50;99.90
20732;DHT22;10527;52.124;5.196;2023-05-29T10:43:30;18.70;99.90
20732;DHT22;10527;52.124;5.196;2023-05-29T10:46:02;19.00;99.90
20732;DHT22;10527;52.124;5.196;2023-05-29T10:48:36;19.00;99.90
20732;DHT22;10527;52.124;5.196;2023-05-29T10:51:05;18.90;99.90
20732;DHT22;10527;52.124;5.196;2023-05-29T10:53:35;19.00;99.90
20732;DHT22;10527;52.124;5.196;2023-05-29T10:56:15;19.00;99.90
20732;DHT22;10527;52.124;5.196;2023-05-29T10:58:52;19.10;99.90
20732;DHT22;10527;52.124;5.196;2023-05-29T11:01:22;19.10;99.90
20732;DHT22;10527;52.124;5.196;2023-05-29T11:03:51;19.20;99.90
20732;DHT22;10527;52.124;5.196;2023-05-29T11:06:22;19.40;99.90
20732;DHT22;10527;52.124;5.196;2023-05-29T11:08:58;19.60;99.90
20732;DHT22;10527;52.124;5.196;2023-05-29T11:13:56;19.30;99.90
20732;DHT22;10527;52.124;5.196;2023-05-29T11:18:58;19.60;99.90
20732;DHT22;10527;52.124;5.196;2023-05-29T11:24:27;19.50;99.90
20732;DHT22;10527;52.124;5.196;2023-05-29T11:27:07;19.60;99.90
20732;DHT22;10527;52.124;5.196;2023-05-29T11:29:35;19.70;99.90
20732;DHT22;10527;52.124;5.196;2023-05-29T11:32:06;19.40;99.90
20732;DHT22;10527;52.124;5.196;2023-05-29T11:34:40;19.50;99.90
20732;DHT22;10527;52.124;5.196;2023-05-29T11:37:18;19.60;99.90
20732;DHT22;10527;52.124;5.196;2023-05-29T11:39:46;19.30;99.90
20732;DHT22;10527;52.124;5.196;2023-05-29T11:42:12;19.20;99.90
20732;DHT22;10527;52.124;5.196;2023-05-29T11:44:39;19.50;99.90
20732;DHT22;10527;52.124;5.196;2023-05-29T11:47:07;19.90;99.90
20732;DHT22;10527;52.124;5.196;2023-05-29T11:49:36;19.90;99.90
20732;DHT22;10527;52.124;5.196;2023-05-29T11:52:14;20.00;99.90
20732;DHT22;10527;52.124;5.196;2023-05-29T11:54:44;20.30;99.90
20732;DHT22;10527;52.124;5.196;2023-05-29T11:57:28;20.70;99.90
20732;DHT22;10527;52.124;5.196;2023-05-29T11:59:56;20.70;99.90
20732;DHT22;10527;52.124;5.196;2023-05-29T12:02:25;20.20;99.90
20732;DHT22;10527;52.124;5.196;2023-05-29T12:05:02;20.50;99.90
20732;DHT22;10527;52.124;5.196;2023-05-29T12:07:34;20.50;99.90
20732;DHT22;10527;52.124;5.196;2023-05-29T12:10:12;20.60;99.90
20732;DHT22;10527;52.124;5.196;2023-05-29T12:12:41;20.50;99.90
20732;DHT22;10527;52.124;5.196;2023-05-29T12:15:11;20.50;99.90
20732;DHT22;10527;52.124;5.196;2023-05-29T12:17:38;20.40;99.90
20732;DHT22;10527;52.124;5.196;2023-05-29T12:20:07;20.10;99.90
20732;DHT22;10527;52.124;5.196;2023-05-29T12:22:40;20.70;99.90
20732;DHT22;10527;52.124;5.196;2023-05-29T12:27:40;20.70;99.90
20732;DHT22;10527;52.124;5.196;2023-05-29T12:30:15;20.70;99.90
20732;DHT22;10527;52.124;5.196;2023-05-29T12:32:59;20.80;99.90
20732;DHT22;10527;52.124;5.196;2023-05-29T12:35:28;20.80;99.90
20732;DHT22;10527;52.124;5.196;2023-05-29T12:38:15;20.50;99.90
20732;DHT22;10527;52.124;5.196;2023-05-29T12:40:48;19.80;99.90
20732;DHT22;10527;52.124;5.196;2023-05-29T12:43:16;19.70;99.90
20732;DHT22;10527;52.124;5.196;2023-05-29T12:45:43;19.80;99.90
20732;DHT22;10527;52.124;5.196;2023-05-29T12:48:27;20.00;99.90
20732;DHT22;10527;52.124;5.196;2023-05-29T12:50:54;20.30;99.90
20732;DHT22;10527;52.124;5.196;2023-05-29T12:53:21;20.10;99.90
20732;DHT22;10527;52.124;5.196;2023-05-29T12:55:48;20.10;99.90
20732;DHT22;10527;52.124;5.196;2023-05-29T12:58:15;19.80;99.90
20732;DHT22;10527;52.124;5.196;2023-05-29T13:00:44;19.50;99.90
20732;DHT22;10527;52.124;5.196;2023-05-29T13:03:12;19.90;99.90
20732;DHT22;10527;52.124;5.196;2023-05-29T13:05:39;20.00;99.90
20732;DHT22;10527;52.124;5.196;2023-05-29T13:08:07;20.30;99.90
20732;DHT22;10527;52.124;5.196;2023-05-29T13:10:35;20.40;99.90
20732;DHT22;10527;52.124;5.196;2023-05-29T13:13:02;20.20;99.90
20732;DHT22;10527;52.124;5.196;2023-05-29T13:15:29;19.90;99.90
20732;DHT22;10527;52.124;5.196;2023-05-29T13:17:59;20.00;99.90
20732;DHT22;10527;52.124;5.196;2023-05-29T13:20:27;20.00;99.90
20732;DHT22;10527;52.124;5.196;2023-05-29T13:22:54;19.90;99.90
20732;DHT22;10527;52.124;5.196;2023-05-29T13:25:21;20.00;99.90
20732;DHT22;10527;52.124;5.196;2023-05-29T13:27:50;20.20;99.90
20732;DHT22;10527;52.124;5.196;2023-05-29T13:30:18;20.40;99.90
20732;DHT22;10527;52.124;5.196;2023-05-29T13:32:45;20.30;99.90
20732;DHT22;10527;52.124;5.196;2023-05-29T13:35:12;20.20;99.90
20732;DHT22;10527;52.124;5.196;2023-05-29T13:37:39;20.00;99.90
20732;DHT22;10527;52.124;5.196;2023-05-29T13:40:07;20.00;99.90
20732;DHT22;10527;52.124;5.196;2023-05-29T13:42:42;20.00;99.90
20732;DHT22;10527;52.124;5.196;2023-05-29T13:45:13;19.90;99.90
20732;DHT22;10527;52.124;5.196;2023-05-29T13:47:50;19.80;99.90
20732;DHT22;10527;52.124;5.196;2023-05-29T13:50:17;19.60;99.90
20732;DHT22;10527;52.124;5.196;2023-05-29T13:52:43;19.50;99.90
20732;DHT22;10527;52.124;5.196;2023-05-29T13:55:11;19.50;99.90
20732;DHT22;10527;52.124;5.196;2023-05-29T13:57:37;19.60;99.90
20732;DHT22;10527;52.124;5.196;2023-05-29T14:00:06;19.20;99.90
20732;DHT22;10527;52.124;5.196;2023-05-29T14:02:34;19.60;99.90
20732;DHT22;10527;52.124;5.196;2023-05-29T14:05:02;19.70;99.90
20732;DHT22;10527;52.124;5.196;2023-05-29T14:07:29;19.80;99.90
20732;DHT22;10527;52.124;5.196;2023-05-29T14:09:56;20.00;99.90
20732;DHT22;10527;52.124;5.196;2023-05-29T14:12:22;20.10;99.90
20732;DHT22;10527;52.124;5.196;2023-05-29T14:14:49;20.30;99.90
20732;DHT22;10527;52.124;5.196;2023-05-29T14:17:19;20.60;99.90
20732;DHT22;10527;52.124;5.196;2023-05-29T14:19:46;20.90;99.90
20732;DHT22;10527;52.124;5.196;2023-05-29T14:22:14;20.80;99.90
20732;DHT22;10527;52.124;5.196;2023-05-29T14:24:41;20.50;99.90
20732;DHT22;10527;52.124;5.196;2023-05-29T14:27:08;20.60;99.90
20732;DHT22;10527;52.124;5.196;2023-05-29T14:29:37;20.60;99.90
20732;DHT22;10527;52.124;5.196;2023-05-29T14:32:04;20.70;99.90
20732;DHT22;10527;52.124;5.196;2023-05-29T14:34:31;20.50;99.90
20732;DHT22;10527;52.124;5.196;2023-05-29T14:36:57;20.50;99.90
20732;DHT22;10527;52.124;5.196;2023-05-29T14:39:25;20.70;99.90
20732;DHT22;10527;52.124;5.196;2023-05-29T14:41:52;20.70;99.90
20732;DHT22;10527;52.124;5.196;2023-05-29T14:44:19;20.80;99.90
20732;DHT22;10527;52.124;5.196;2023-05-29T14:46:46;20.80;99.90
20732;DHT22;10527;52.124;5.196;2023-05-29T14:49:33;20.70;99.90
20732;DHT22;10527;52.124;5.196;2023-05-29T14:52:00;20.80;99.90
20732;DHT22;10527;52.124;5.196;2023-05-29T14:54:29;20.60;99.90
20732;DHT22;10527;52.124;5.196;2023-05-29T14:56:56;20.70;99.90
20732;DHT22;10527;52.124;5.196;2023-05-29T14:59:24;20.90;99.90
20732;DHT22;10527;52.124;5.196;2023-05-29T15:01:51;20.90;99.90
20732;DHT22;10527;52.124;5.196;2023-05-29T15:04:20;21.00;99.90
20732;DHT22;10527;52.124;5.196;2023-05-29T15:06:47;20.80;99.90
20732;DHT22;10527;52.124;5.196;2023-05-29T15:09:24;20.80;99.90
20732;DHT22;10527;52.124;5.196;2023-05-29T15:11:51;20.80;99.90
20732;DHT22;10527;52.124;5.196;2023-05-29T15:14:17;20.90;99.90
20732;DHT22;10527;52.124;5.196;2023-05-29T15:16:45;20.50;99.90
20732;DHT22;10527;52.124;5.196;2023-05-29T15:19:12;20.30;99.90
20732;DHT22;10527;52.124;5.196;2023-05-29T15:21:39;20.40;99.90
20732;DHT22;10527;52.124;5.196;2023-05-29T15:24:06;20.40;99.90
20732;DHT22;10527;52.124;5.196;2023-05-29T15:26:35;19.80;99.90
20732;DHT22;10527;52.124;5.196;2023-05-29T15:29:03;19.80;99.90
20732;DHT22;10527;52.124;5.196;2023-05-29T15:31:30;19.80;99.90
20732;DHT22;10527;52.124;5.196;2023-05-29T15:33:57;19.70;99.90
20732;DHT22;10527;52.124;5.196;2023-05-29T15:36:23;19.90;99.90
20732;DHT22;10527;52.124;5.196;2023-05-29T15:38:50;19.90;99.90
20732;DHT22;10527;52.124;5.196;2023-05-29T15:41:17;20.20;99.90
20732;DHT22;10527;52.124;5.196;2023-05-29T15:43:44;20.10;99.90
20732;DHT22;10527;52.124;5.196;2023-05-29T15:46:11;20.10;99.90
20732;DHT22;10527;52.124;5.196;2023-05-29T15:48:37;20.60;99.90
20732;DHT22;10527;52.124;5.196;2023-05-29T15:51:04;20.30;99.90
20732;DHT22;10527;52.124;5.196;2023-05-29T15:53:31;20.20;99.90
20732;DHT22;10527;52.124;5.196;2023-05-29T15:55:58;20.30;99.90
20732;DHT22;10527;52.124;5.196;2023-05-29T15:58:25;20.40;99.90
20732;DHT22;10527;52.124;5.196;2023-05-29T16:00:52;20.40;99.90
20732;DHT22;10527;52.124;5.196;2023-05-29T16:03:19;20.40;99.90
20732;DHT22;10527;52.124;5.196;2023-05-29T16:05:46;20.40;99.90
20732;DHT22;10527;52.124;5.196;2023-05-29T16:08:13;20.50;99.90